Time;durP1;ratioP1;P1;durP2;ratioP2;P2;SDS_P1;SDS_P2;PMS_P1;PMS_P2;Temp;Humidity;BMP_temperature;BMP_pressure;BME280_temperature;BME280_humidity;BME280_pressure;Samples;Min_cycle;Max_cycle;Signal;HPM_P1;HPM_P2
2022/12/04 00:01:18;;;;;;;68.55;27.63;;;4.60;99.90;;;;;;5037285;28;20060;-68
2022/12/04 00:03:44;;;;;;;72.38;28.13;;;4.60;99.90;;;;;;5054902;28;20049;-69
2022/12/04 00:06:14;;;;;;;65.72;27.05;;;4.60;99.90;;;;;;5037721;28;20028;-69
2022/12/04 00:08:41;;;;;;;72.93;27.58;;;4.60;99.90;;;;;;5040963;28;20432;-70
2022/12/04 00:11:08;;;;;;;67.95;28.90;;;4.60;99.90;;;;;;5043649;28;20116;-76
2022/12/04 00:13:34;;;;;;;65.40;27.42;;;4.60;99.90;;;;;;5043594;28;20384;-70
2022/12/04 00:16:00;;;;;;;71.10;26.85;;;4.60;99.90;;;;;;5059290;28;20025;-69
2022/12/04 00:18:26;;;;;;;58.53;25.90;;;4.70;99.90;;;;;;5057070;28;20100;-68
2022/12/04 00:20:52;;;;;;;62.38;26.63;;;4.70;99.90;;;;;;5037162;28;20040;-68
2022/12/04 00:23:17;;;;;;;65.85;26.98;;;4.70;99.90;;;;;;5055886;28;20029;-69
2022/12/04 00:25:47;;;;;;;69.88;26.80;;;4.70;99.90;;;;;;5037772;28;20052;-69
2022/12/04 00:28:15;;;;;;;74.05;27.95;;;4.70;99.90;;;;;;5037791;28;20025;-70
2022/12/04 00:30:42;;;;;;;70.57;28.85;;;4.70;99.90;;;;;;5037520;28;20477;-70
2022/12/04 00:33:08;;;;;;;71.20;26.98;;;4.70;99.90;;;;;;5054962;28;20497;-69
2022/12/04 00:35:33;;;;;;;66.80;26.20;;;4.70;99.90;;;;;;5054939;28;20071;-70
2022/12/04 00:37:59;;;;;;;69.00;28.08;;;4.70;99.90;;;;;;5037261;28;20048;-69
2022/12/04 00:40:25;;;;;;;66.15;27.65;;;4.70;99.90;;;;;;5037532;28;20484;-70
2022/12/04 00:42:50;;;;;;;68.85;27.45;;;4.70;99.90;;;;;;5054938;28;20392;-69
2022/12/04 00:45:16;;;;;;;69.05;27.40;;;4.70;99.90;;;;;;5055375;28;20025;-70
2022/12/04 00:47:42;;;;;;;75.55;28.27;;;4.60;99.90;;;;;;5054547;28;20029;-69
2022/12/04 00:50:08;;;;;;;66.43;26.58;;;4.70;99.90;;;;;;5054718;28;20059;-69
2022/12/04 00:52:33;;;;;;;69.50;28.13;;;4.60;99.90;;;;;;5036667;28;20028;-69
2022/12/04 00:54:59;;;;;;;69.18;28.70;;;4.60;99.90;;;;;;5036650;28;20024;-69
2022/12/04 00:57:24;;;;;;;75.35;28.63;;;4.60;99.90;;;;;;5054506;28;20029;-69
2022/12/04 00:59:51;;;;;;;79.38;28.90;;;4.60;99.90;;;;;;5037014;28;20033;-69
2022/12/04 01:02:16;;;;;;;66.15;28.52;;;4.60;99.90;;;;;;5036703;28;20029;-73
2022/12/04 01:04:42;;;;;;;67.55;29.30;;;4.60;99.90;;;;;;5054310;28;20377;-70
2022/12/04 01:07:07;;;;;;;72.13;27.45;;;4.60;99.90;;;;;;5054119;28;20075;-69
2022/12/04 01:09:33;;;;;;;67.53;28.77;;;4.60;99.90;;;;;;5054013;28;20091;-69
2022/12/04 01:11:59;;;;;;;67.13;28.45;;;4.60;99.90;;;;;;5036276;28;20033;-69
2022/12/04 01:14:24;;;;;;;64.47;26.58;;;4.60;99.90;;;;;;5054097;28;20068;-70
2022/12/04 01:16:50;;;;;;;73.15;28.05;;;4.60;99.90;;;;;;5054238;28;20067;-69
2022/12/04 01:19:16;;;;;;;70.85;28.60;;;4.60;99.90;;;;;;5054201;28;20475;-69
2022/12/04 01:21:41;;;;;;;68.10;27.55;;;4.60;99.90;;;;;;5054058;28;20052;-69
2022/12/04 01:24:07;;;;;;;66.80;28.00;;;4.60;99.90;;;;;;5054347;28;20025;-70
2022/12/04 01:26:34;;;;;;;62.05;26.15;;;4.60;99.90;;;;;;5055137;28;20464;-69
2022/12/04 01:29:00;;;;;;;66.40;26.98;;;4.60;99.90;;;;;;5037771;28;20017;-69
2022/12/04 01:31:26;;;;;;;64.53;27.98;;;4.60;99.90;;;;;;5055882;28;20029;-71
2022/12/04 01:33:52;;;;;;;65.30;27.48;;;4.70;99.90;;;;;;5056875;28;20025;-70
2022/12/04 01:36:21;;;;;;;65.63;29.77;;;4.60;99.90;;;;;;5059639;28;20056;-69
2022/12/04 01:38:47;;;;;;;72.15;27.23;;;4.70;99.90;;;;;;5059410;28;20021;-70
2022/12/04 01:41:16;;;;;;;61.17;27.23;;;4.70;99.90;;;;;;5059409;28;20025;-69
2022/12/04 01:43:42;;;;;;;64.88;27.08;;;4.70;99.90;;;;;;5041280;28;20025;-69
2022/12/04 01:46:09;;;;;;;64.47;28.13;;;4.70;99.90;;;;;;5058515;28;20108;-69
2022/12/04 01:48:45;;;;;;;67.55;28.85;;;4.70;99.90;;;;;;5059193;28;20048;-69
2022/12/04 01:51:35;;;;;;;64.82;28.77;;;4.70;99.90;;;;;;5058912;28;20117;-69
2022/12/04 01:54:06;;;;;;;61.25;27.67;;;4.70;99.90;;;;;;5058481;28;20032;-69
2022/12/04 01:56:46;;;;;;;63.45;28.60;;;4.70;99.90;;;;;;5058045;28;20025;-69
2022/12/04 01:59:16;;;;;;;65.15;29.42;;;4.70;99.90;;;;;;5058282;28;20028;-69
2022/12/04 02:01:48;;;;;;;68.68;28.80;;;4.70;99.90;;;;;;5057944;28;20021;-70
2022/12/04 02:04:14;;;;;;;65.10;27.58;;;4.70;99.90;;;;;;5058031;28;20074;-69
2022/12/04 02:06:40;;;;;;;61.05;27.10;;;4.70;99.90;;;;;;5057617;28;20059;-69
2022/12/04 02:09:05;;;;;;;63.15;28.50;;;4.70;99.90;;;;;;5057572;28;20045;-69
2022/12/04 02:11:34;;;;;;;69.90;29.52;;;4.70;99.90;;;;;;5039558;28;20037;-69
2022/12/04 02:14:24;;;;;;;64.25;28.85;;;4.70;99.90;;;;;;5057347;28;20473;-70
2022/12/04 02:17:14;;;;;;;61.78;26.98;;;4.70;99.90;;;;;;5040196;28;20071;-70
2022/12/04 02:19:43;;;;;;;62.00;27.65;;;4.70;99.90;;;;;;5060024;28;20040;-71
2022/12/04 02:22:44;;;;;;;64.20;28.42;;;4.70;99.90;;;;;;5061836;28;20029;-70
2022/12/04 02:25:45;;;;;;;56.30;27.48;;;4.70;99.90;;;;;;5061672;28;20040;-69
2022/12/04 02:28:54;;;;;;;64.30;27.73;;;4.80;99.90;;;;;;5043837;28;20029;-69
2022/12/04 02:31:37;;;;;;;62.55;27.13;;;4.80;99.90;;;;;;4978506;28;20141;-69
2022/12/04 02:34:09;;;;;;;56.17;26.60;;;4.80;99.90;;;;;;4978482;28;20038;-69
2022/12/04 02:37:10;;;;;;;56.30;27.15;;;4.80;99.90;;;;;;4977896;28;20050;-69
2022/12/04 02:39:45;;;;;;;63.65;26.05;;;4.80;99.90;;;;;;4966690;28;20043;-69
2022/12/04 02:42:31;;;;;;;64.18;27.13;;;4.80;99.90;;;;;;4977660;28;20043;-70
2022/12/04 02:45:05;;;;;;;61.85;26.27;;;4.80;99.90;;;;;;4975987;28;20043;-70
2022/12/04 02:47:32;;;;;;;54.08;25.58;;;4.80;99.90;;;;;;4978317;28;20598;-70
2022/12/04 02:50:00;;;;;;;60.45;26.02;;;4.80;99.90;;;;;;4977742;28;20077;-69
2022/12/04 02:52:35;;;;;;;56.85;25.45;;;4.80;99.90;;;;;;4960776;28;20027;-69
2022/12/04 02:55:13;;;;;;;59.20;26.95;;;4.90;99.90;;;;;;4976872;28;20061;-69
2022/12/04 02:57:43;;;;;;;55.00;24.92;;;4.90;99.90;;;;;;4976339;28;20035;-69
2022/12/04 03:00:10;;;;;;;55.08;24.85;;;4.90;99.90;;;;;;4976737;28;20043;-70
2022/12/04 03:02:55;;;;;;;49.92;23.67;;;4.90;99.90;;;;;;5020555;28;20485;-69
2022/12/04 03:05:27;;;;;;;51.28;24.00;;;4.90;99.90;;;;;;5057768;28;20036;-69
2022/12/04 03:07:59;;;;;;;51.63;25.27;;;4.90;99.90;;;;;;5057488;28;20021;-69
2022/12/04 03:10:33;;;;;;;54.97;25.17;;;4.90;99.90;;;;;;5039325;28;20396;-69
2022/12/04 03:13:29;;;;;;;53.35;24.17;;;4.90;99.90;;;;;;5057698;28;20021;-69
2022/12/04 03:16:12;;;;;;;53.10;24.95;;;4.90;99.90;;;;;;5056791;28;20037;-69
2022/12/04 03:18:40;;;;;;;55.08;25.25;;;4.90;99.90;;;;;;5057295;28;20522;-69
2022/12/04 03:21:15;;;;;;;60.30;25.25;;;4.90;99.90;;;;;;5056738;28;20033;-70
2022/12/04 03:23:55;;;;;;;56.40;24.85;;;4.90;99.90;;;;;;5056851;28;20495;-69
2022/12/04 03:26:43;;;;;;;61.13;24.88;;;4.90;99.90;;;;;;5056274;28;20029;-69
2022/12/04 03:29:34;;;;;;;63.22;27.88;;;4.90;99.90;;;;;;5056246;28;20071;-69
2022/12/04 03:32:14;;;;;;;69.30;27.30;;;4.90;99.90;;;;;;5038882;28;20029;-69
2022/12/04 03:34:39;;;;;;;67.82;29.17;;;4.90;99.90;;;;;;5056408;28;20063;-69
2022/12/04 03:37:16;;;;;;;70.93;28.73;;;4.90;99.90;;;;;;5037866;28;20021;-69
2022/12/04 03:39:50;;;;;;;70.32;30.63;;;4.90;99.90;;;;;;5038382;28;20381;-69
2022/12/04 03:42:25;;;;;;;75.78;30.17;;;4.80;99.90;;;;;;5037839;28;20097;-70
2022/12/04 03:45:12;;;;;;;84.28;31.50;;;4.80;99.90;;;;;;5056018;28;20032;-69
2022/12/04 03:48:02;;;;;;;80.22;31.10;;;4.80;99.90;;;;;;5055666;28;20432;-69
2022/12/04 03:51:06;;;;;;;88.00;31.30;;;4.80;99.90;;;;;;5037540;28;20480;-69
2022/12/04 03:53:46;;;;;;;76.22;30.42;;;4.80;99.90;;;;;;5007339;28;20033;-69
2022/12/04 03:56:26;;;;;;;73.13;31.77;;;4.80;99.90;;;;;;5054921;28;20036;-69
2022/12/04 03:58:57;;;;;;;73.03;29.58;;;4.80;99.90;;;;;;5055856;28;20036;-71
2022/12/04 04:01:28;;;;;;;77.32;30.00;;;4.80;99.90;;;;;;5037503;28;20143;-70
2022/12/04 04:03:56;;;;;;;78.78;30.92;;;4.80;99.90;;;;;;5055914;28;20469;-69
2022/12/04 04:06:30;;;;;;;67.73;29.53;;;4.80;99.90;;;;;;5055155;28;20025;-70
2022/12/04 04:09:03;;;;;;;71.07;31.33;;;4.80;99.90;;;;;;5055458;28;20204;-70
2022/12/04 04:11:59;;;;;;;75.60;31.58;;;4.80;99.90;;;;;;5037110;28;20029;-69
2022/12/04 04:25:51;;;;;;;73.30;32.47;;;4.80;99.90;;;;;;5055123;28;20044;-70
2022/12/04 04:28:45;;;;;;;70.53;31.52;;;4.80;99.90;;;;;;5059093;28;20025;-70
2022/12/04 04:31:19;;;;;;;69.57;30.92;;;4.80;99.90;;;;;;5042599;28;20068;-71
2022/12/04 04:34:19;;;;;;;70.95;30.33;;;4.80;99.90;;;;;;5041778;28;20067;-69
2022/12/04 04:36:57;;;;;;;70.20;31.33;;;4.80;99.90;;;;;;5057937;28;20029;-69
2022/12/04 04:39:32;;;;;;;68.88;30.50;;;4.80;99.90;;;;;;5039108;28;20036;-72
2022/12/04 04:42:03;;;;;;;63.80;30.05;;;4.80;99.90;;;;;;5056207;28;20032;-70
2022/12/04 04:44:36;;;;;;;70.75;31.27;;;4.80;99.90;;;;;;5038395;28;20469;-70
2022/12/04 04:47:05;;;;;;;75.10;33.53;;;4.70;99.90;;;;;;5056051;28;20029;-69
2022/12/04 04:49:33;;;;;;;68.93;30.98;;;4.70;99.90;;;;;;5038003;28;20124;-69
2022/12/04 04:51:59;;;;;;;68.70;30.17;;;4.70;99.90;;;;;;5055490;28;20041;-69
2022/12/04 04:54:27;;;;;;;67.68;30.05;;;4.70;99.90;;;;;;5037677;28;20025;-69
2022/12/04 04:56:52;;;;;;;64.00;29.85;;;4.70;99.90;;;;;;5037114;28;20115;-69
2022/12/04 04:59:18;;;;;;;63.25;28.45;;;4.70;99.90;;;;;;5054796;28;20064;-69
2022/12/04 05:01:45;;;;;;;63.53;28.58;;;4.70;99.90;;;;;;5055141;28;20057;-70
2022/12/04 05:04:11;;;;;;;53.95;26.13;;;4.70;99.90;;;;;;5037029;28;20033;-69
2022/12/04 05:06:37;;;;;;;54.60;27.05;;;4.70;99.90;;;;;;5037780;28;20184;-70
2022/12/04 05:09:04;;;;;;;58.83;27.80;;;4.80;99.90;;;;;;5035708;28;20131;-69
2022/12/04 05:11:30;;;;;;;59.28;27.10;;;4.80;99.90;;;;;;5054584;28;20032;-69
2022/12/04 05:13:55;;;;;;;63.72;28.10;;;4.80;99.90;;;;;;5054688;28;20408;-69
2022/12/04 05:16:22;;;;;;;62.13;27.40;;;4.70;99.90;;;;;;5054110;28;20430;-69
2022/12/04 05:21:33;;;;;;;64.82;29.38;;;4.80;99.90;;;;;;5053980;28;20389;-69
2022/12/04 05:23:59;;;;;;;69.53;30.42;;;4.80;99.90;;;;;;5054334;28;20029;-69
2022/12/04 05:26:24;;;;;;;62.97;30.58;;;4.80;99.90;;;;;;5054219;28;20484;-69
2022/12/04 05:28:50;;;;;;;70.82;30.75;;;4.70;99.90;;;;;;5036228;28;20082;-69
2022/12/04 05:31:16;;;;;;;71.15;31.38;;;4.70;99.90;;;;;;5036183;28;20121;-69
2022/12/04 05:33:42;;;;;;;78.00;32.92;;;4.80;99.90;;;;;;5053904;28;20025;-68
2022/12/04 05:36:09;;;;;;;80.78;37.13;;;4.70;99.90;;;;;;5054021;28;20449;-69
2022/12/04 05:38:36;;;;;;;96.07;38.67;;;4.70;99.90;;;;;;5053586;28;20029;-69
2022/12/04 05:41:03;;;;;;;88.30;40.03;;;4.70;99.90;;;;;;5035962;28;20362;-69
2022/12/04 05:43:29;;;;;;;84.25;38.53;;;4.70;99.90;;;;;;5053913;28;20025;-69
2022/12/04 05:46:03;;;;;;;90.25;37.83;;;4.70;99.90;;;;;;5036339;28;20075;-69
2022/12/04 05:48:28;;;;;;;92.22;39.97;;;4.70;99.90;;;;;;5036349;28;20021;-70
2022/12/04 05:50:54;;;;;;;105.38;42.28;;;4.70;99.90;;;;;;5055650;28;20033;-72
2022/12/04 05:53:19;;;;;;;96.90;41.78;;;4.70;99.90;;;;;;5055583;28;20036;-72
2022/12/04 05:55:56;;;;;;;89.05;40.95;;;4.60;99.90;;;;;;5056051;28;20029;-72
2022/12/04 05:58:22;;;;;;;100.60;42.33;;;4.70;99.90;;;;;;5056397;28;20021;-72
2022/12/04 06:00:48;;;;;;;96.97;44.08;;;4.60;99.90;;;;;;5055390;28;20040;-73
2022/12/04 06:03:14;;;;;;;97.28;43.88;;;4.60;99.90;;;;;;5037951;28;20028;-72
2022/12/04 06:05:39;;;;;;;101.15;44.45;;;4.60;99.90;;;;;;5055449;28;20021;-72
2022/12/04 06:08:05;;;;;;;98.40;45.83;;;4.60;99.90;;;;;;5038279;28;20061;-72
2022/12/04 06:10:31;;;;;;;109.90;47.50;;;4.60;99.90;;;;;;5056380;28;20552;-71
2022/12/04 06:12:58;;;;;;;104.30;45.08;;;4.60;99.90;;;;;;5038712;28;20099;-71
2022/12/04 06:15:24;;;;;;;100.13;46.78;;;4.50;99.90;;;;;;5056509;28;20025;-73
2022/12/04 06:17:49;;;;;;;96.07;46.50;;;4.50;99.90;;;;;;5057378;28;20025;-72
2022/12/04 06:20:15;;;;;;;102.68;46.15;;;4.50;99.90;;;;;;5043358;28;20058;-72
2022/12/04 06:22:41;;;;;;;101.15;45.75;;;4.50;99.90;;;;;;5063054;28;20036;-72
2022/12/04 06:25:07;;;;;;;103.95;47.85;;;4.50;99.90;;;;;;5062375;28;20029;-72
2022/12/04 06:27:33;;;;;;;108.20;48.10;;;4.50;99.90;;;;;;5044560;28;20105;-72
2022/12/04 06:29:59;;;;;;;112.75;47.95;;;4.50;99.90;;;;;;5043866;28;20053;-72
2022/12/04 06:32:25;;;;;;;107.30;45.03;;;4.40;99.90;;;;;;5061291;28;20028;-73
2022/12/04 06:34:54;;;;;;;111.07;46.45;;;4.50;99.90;;;;;;5043752;28;20527;-73
2022/12/04 06:37:20;;;;;;;;;;;4.40;99.90;;;;;;5043833;28;20120;-72
2022/12/04 06:39:46;;;;;;;110.00;46.70;;;4.40;99.90;;;;;;5043065;28;19912;-72
2022/12/04 06:42:11;;;;;;;107.95;45.75;;;4.40;99.90;;;;;;5060502;28;20029;-72
2022/12/04 06:44:37;;;;;;;113.07;48.08;;;4.40;99.90;;;;;;5044687;28;20481;-73
2022/12/04 06:47:04;;;;;;;122.55;49.38;;;4.40;99.90;;;;;;5063956;28;20048;-72
2022/12/04 06:49:29;;;;;;;116.00;46.08;;;4.40;99.90;;;;;;5064697;28;20035;-72
2022/12/04 06:51:55;;;;;;;113.18;47.65;;;4.40;99.90;;;;;;5064625;28;20029;-72
2022/12/04 06:54:21;;;;;;;111.45;47.88;;;4.30;99.90;;;;;;5063451;28;20039;-72
2022/12/04 06:56:48;;;;;;;107.43;45.13;;;4.30;99.90;;;;;;5061644;28;20459;-71
2022/12/04 06:59:14;;;;;;;119.72;47.15;;;4.40;99.90;;;;;;5061404;28;20029;-71
2022/12/04 07:01:40;;;;;;;116.22;48.05;;;4.40;99.90;;;;;;5062482;28;20036;-71
2022/12/04 07:04:06;;;;;;;106.47;46.63;;;4.30;99.90;;;;;;5060630;28;20028;-71
2022/12/04 07:06:36;;;;;;;121.72;48.70;;;4.30;99.90;;;;;;5060361;28;20033;-71
2022/12/04 07:09:04;;;;;;;126.68;48.33;;;4.40;99.90;;;;;;5058686;28;20048;-70
2022/12/04 07:11:30;;;;;;;126.38;48.65;;;4.30;99.90;;;;;;5058692;28;20036;-71
2022/12/04 07:13:56;;;;;;;122.22;48.38;;;4.40;99.90;;;;;;5058749;28;20037;-74
2022/12/04 07:16:25;;;;;;;109.53;45.47;;;4.30;99.90;;;;;;5058518;28;20032;-72
2022/12/04 07:18:52;;;;;;;118.40;46.38;;;4.30;99.90;;;;;;5059405;28;20029;-73
2022/12/04 07:21:21;;;;;;;120.15;45.97;;;4.30;99.90;;;;;;5059372;28;20036;-72
2022/12/04 07:23:51;;;;;;;111.45;45.10;;;4.30;99.90;;;;;;5060062;28;20112;-73
2022/12/04 07:26:17;;;;;;;109.57;43.55;;;4.40;99.90;;;;;;5044080;28;20529;-73
2022/12/04 07:28:44;;;;;;;115.03;43.75;;;4.30;99.90;;;;;;5060859;28;20021;-73
2022/12/04 07:31:12;;;;;;;115.68;40.60;;;4.30;99.90;;;;;;5040838;28;20116;-71
2022/12/04 07:33:38;;;;;;;84.97;31.57;;;4.30;99.90;;;;;;5059155;28;20025;-72
2022/12/04 07:36:06;;;;;;;105.65;40.40;;;4.30;99.90;;;;;;5042382;28;20082;-71
2022/12/04 07:38:32;;;;;;;128.00;44.13;;;4.30;99.90;;;;;;5059204;28;20369;-71
2022/12/04 07:40:58;;;;;;;120.53;43.03;;;4.30;99.90;;;;;;5040588;28;20477;-71
2022/12/04 07:43:25;;;;;;;119.18;43.15;;;4.30;99.90;;;;;;5057937;28;20155;-71
2022/12/04 07:45:51;;;;;;;112.20;41.10;;;4.30;99.90;;;;;;5057998;28;20385;-71
2022/12/04 07:48:16;;;;;;;107.80;39.97;;;4.30;99.90;;;;;;5058619;28;20025;-71
2022/12/04 07:50:43;;;;;;;107.40;42.33;;;4.30;99.90;;;;;;5039154;28;20033;-72
2022/12/04 07:53:09;;;;;;;113.35;42.85;;;4.30;99.90;;;;;;5039195;28;20083;-73
2022/12/04 07:55:34;;;;;;;114.18;41.45;;;4.30;99.90;;;;;;5058006;28;20040;-73
2022/12/04 07:58:00;;;;;;;112.80;41.70;;;4.30;99.90;;;;;;5057953;28;20094;-73
2022/12/04 08:00:26;;;;;;;106.50;40.25;;;4.30;99.90;;;;;;5039419;28;20029;-72
2022/12/04 08:02:51;;;;;;;107.95;41.70;;;4.30;99.90;;;;;;5040604;28;20092;-72
2022/12/04 08:05:17;;;;;;;109.90;38.38;;;4.30;99.90;;;;;;5039720;28;20036;-72
2022/12/04 08:07:43;;;;;;;98.75;36.30;;;4.30;99.90;;;;;;5058375;28;20021;-72
2022/12/04 08:10:09;;;;;;;95.10;36.90;;;4.30;99.90;;;;;;5057242;28;20053;-72
2022/12/04 08:12:35;;;;;;;99.50;38.45;;;4.20;99.90;;;;;;5038983;28;20043;-72
2022/12/04 08:15:01;;;;;;;101.13;35.70;;;4.20;99.90;;;;;;5056929;28;20021;-72
2022/12/04 08:17:26;;;;;;;100.78;36.08;;;4.20;99.90;;;;;;5056813;28;20029;-72
2022/12/04 08:19:52;;;;;;;100.20;37.20;;;4.20;99.90;;;;;;5056439;28;20095;-72
2022/12/04 08:22:18;;;;;;;101.35;38.88;;;4.20;99.90;;;;;;5057593;28;20033;-72
2022/12/04 08:24:43;;;;;;;83.00;33.92;;;4.10;99.90;;;;;;5057331;28;20025;-71
2022/12/04 08:27:09;;;;;;;95.20;34.13;;;4.10;99.90;;;;;;5055165;28;20021;-71
2022/12/04 08:29:35;;;;;;;93.65;35.90;;;4.10;99.90;;;;;;5056447;28;20025;-72
2022/12/04 08:32:01;;;;;;;97.47;35.08;;;4.10;99.90;;;;;;5038999;28;20036;-71
2022/12/04 08:34:26;;;;;;;95.65;35.35;;;4.10;99.90;;;;;;5056726;28;20032;-71
2022/12/04 08:36:52;;;;;;;101.03;35.15;;;4.10;99.90;;;;;;5037938;28;20025;-70
2022/12/04 08:39:18;;;;;;;104.25;34.33;;;4.20;99.90;;;;;;5055220;28;20078;-72
2022/12/04 08:41:43;;;;;;;103.53;34.50;;;4.20;99.90;;;;;;5037662;28;20037;-71
2022/12/04 08:44:09;;;;;;;101.05;33.25;;;4.10;99.90;;;;;;5056223;28;20029;-73
2022/12/04 08:46:35;;;;;;;93.00;32.95;;;4.20;99.90;;;;;;5043099;28;20029;-72
2022/12/04 08:49:01;;;;;;;93.25;31.30;;;4.10;99.90;;;;;;5062433;28;20025;-71
2022/12/04 08:51:29;;;;;;;112.85;34.15;;;4.10;99.90;;;;;;5040800;28;20526;-72
2022/12/04 08:53:57;;;;;;;109.70;35.53;;;4.10;99.90;;;;;;5058009;28;20102;-71
2022/12/04 08:56:24;;;;;;;100.38;35.15;;;4.10;99.90;;;;;;5058859;28;20036;-70
2022/12/04 08:58:50;;;;;;;102.82;32.75;;;4.10;99.90;;;;;;5057897;28;20025;-69
2022/12/04 09:01:17;;;;;;;102.65;34.38;;;4.20;99.90;;;;;;5055539;28;20033;-69
2022/12/04 09:03:43;;;;;;;110.10;33.72;;;4.10;99.90;;;;;;5037306;28;20028;-69
2022/12/04 09:06:12;;;;;;;100.53;33.83;;;4.10;99.90;;;;;;5054396;28;20028;-69
2022/12/04 09:08:38;;;;;;;101.88;32.88;;;4.00;99.90;;;;;;5036089;28;20384;-70
2022/12/04 09:11:06;;;;;;;100.55;31.65;;;4.10;99.90;;;;;;5054029;28;20431;-76
2022/12/04 09:13:34;;;;;;;104.40;33.05;;;4.10;99.90;;;;;;5056116;28;20035;-72
2022/12/04 09:16:05;;;;;;;65.60;22.65;;;4.10;99.90;;;;;;5055796;28;20025;-72
2022/12/04 09:18:32;;;;;;;98.25;31.60;;;4.10;99.90;;;;;;5055610;28;20025;-70
2022/12/04 09:21:00;;;;;;;110.05;33.17;;;4.10;99.90;;;;;;5036432;28;20433;-70
2022/12/04 09:23:27;;;;;;;90.60;30.63;;;4.10;99.90;;;;;;5036873;28;20052;-70
2022/12/04 09:25:53;;;;;;;104.70;32.15;;;4.00;99.90;;;;;;5036082;28;20083;-70
2022/12/04 09:28:19;;;;;;;110.88;31.60;;;4.00;99.90;;;;;;5036812;28;20025;-73
2022/12/04 09:31:00;;;;;;;113.32;34.30;;;4.00;99.90;;;;;;5037765;28;20044;-72
2022/12/04 09:33:27;;;;;;;81.78;28.27;;;3.90;99.90;;;;;;5055005;28;20033;-71
2022/12/04 09:35:53;;;;;;;102.90;33.20;;;3.90;99.90;;;;;;5036938;28;20457;-71
2022/12/04 09:38:19;;;;;;;102.40;30.85;;;3.80;99.90;;;;;;5055170;28;20092;-72
2022/12/04 09:41:10;;;;;;;92.45;29.45;;;3.90;99.90;;;;;;5055631;28;20029;-71
2022/12/04 09:44:11;;;;;;;92.10;29.98;;;3.90;99.90;;;;;;5006449;28;20036;-73
2022/12/04 09:46:56;;;;;;;90.50;27.95;;;3.80;99.90;;;;;;4974272;28;20034;-70
2022/12/04 09:49:41;;;;;;;86.10;30.20;;;3.80;99.90;;;;;;5049014;28;20037;-70
2022/12/04 09:52:34;;;;;;;105.88;32.95;;;3.80;99.90;;;;;;5036732;28;20029;-69
2022/12/04 09:55:03;;;;;;;83.43;31.00;;;3.90;99.90;;;;;;5044935;28;20037;-75
2022/12/04 09:57:37;;;;;;;;;;;3.90;99.90;;;;;;5042492;28;20025;-75
2022/12/04 10:00:05;;;;;;;86.82;31.80;;;3.90;99.90;;;;;;5058869;28;19905;-71
2022/12/04 10:02:37;;;;;;;90.25;32.38;;;3.90;99.90;;;;;;5057848;28;20029;-76
2022/12/04 10:05:06;;;;;;;81.97;28.67;;;3.90;99.90;;;;;;5059022;28;20406;-68
2022/12/04 10:07:42;;;;;;;82.93;29.20;;;3.90;99.90;;;;;;5042075;28;20025;-74
2022/12/04 10:10:25;;;;;;;79.25;28.30;;;3.90;99.90;;;;;;5059019;28;20053;-67
2022/12/04 10:13:04;;;;;;;81.07;28.10;;;3.90;99.90;;;;;;5040163;28;20033;-66
2022/12/04 10:15:54;;;;;;;76.40;27.83;;;3.90;99.90;;;;;;5040303;28;20028;-67
2022/12/04 10:18:26;;;;;;;81.60;29.88;;;3.90;99.90;;;;;;5057915;28;20025;-56
2022/12/04 10:21:10;;;;;;;74.80;28.92;;;3.90;99.90;;;;;;5056990;28;20033;-56
2022/12/04 10:23:44;;;;;;;82.63;27.40;;;3.90;99.90;;;;;;5057890;28;20025;-69
2022/12/04 10:26:16;;;;;;;74.05;28.13;;;3.90;99.90;;;;;;5039661;28;20054;-68
2022/12/04 10:29:12;;;;;;;87.10;29.48;;;3.90;99.90;;;;;;5057216;28;20025;-70
2022/12/04 10:31:40;;;;;;;76.97;28.00;;;3.80;99.90;;;;;;5038738;28;20037;-69
2022/12/04 10:34:21;;;;;;;79.15;29.50;;;3.80;99.90;;;;;;5057027;28;20029;-68
2022/12/04 10:36:59;;;;;;;82.47;29.95;;;3.70;99.90;;;;;;5056925;28;20461;-69
2022/12/04 10:39:27;;;;;;;74.90;27.17;;;3.70;99.90;;;;;;5057200;28;20468;-71
2022/12/04 10:42:11;;;;;;;83.97;29.75;;;3.70;99.90;;;;;;5056779;28;20029;-69
2022/12/04 10:44:38;;;;;;;92.45;31.42;;;3.70;99.90;;;;;;5056790;28;20025;-69
2022/12/04 10:47:05;;;;;;;82.22;30.13;;;3.60;99.90;;;;;;5060019;28;20025;-70
2022/12/04 10:49:36;;;;;;;88.78;33.40;;;3.60;99.90;;;;;;5060180;28;20029;-70
2022/12/04 10:52:02;;;;;;;92.90;31.88;;;3.60;99.90;;;;;;5059399;28;20034;-70
2022/12/04 10:54:32;;;;;;;85.38;32.40;;;3.60;99.90;;;;;;5042057;28;20123;-70
2022/12/04 10:57:07;;;;;;;86.07;31.30;;;3.60;99.90;;;;;;5039284;28;20032;-68
2022/12/04 10:59:51;;;;;;;97.05;32.70;;;3.50;99.90;;;;;;5056579;28;20044;-70
2022/12/04 11:02:30;;;;;;;89.63;32.35;;;3.50;99.90;;;;;;5056673;28;20021;-71
2022/12/04 11:05:02;;;;;;;88.22;31.52;;;3.50;99.90;;;;;;5038603;28;20464;-72
2022/12/04 11:07:43;;;;;;;94.97;32.90;;;3.40;99.90;;;;;;5055417;28;20032;-72
2022/12/04 11:10:44;;;;;;;92.07;33.22;;;3.50;99.90;;;;;;5039109;28;20515;-71
2022/12/04 11:13:15;;;;;;;92.20;33.63;;;3.50;99.90;;;;;;4976122;28;20041;-71
2022/12/04 11:15:42;;;;;;;85.00;33.38;;;3.50;99.90;;;;;;5025705;28;20114;-71
2022/12/04 11:18:15;;;;;;;82.13;32.10;;;3.50;99.90;;;;;;5057100;28;20035;-70
2022/12/04 11:20:48;;;;;;;83.82;32.10;;;3.50;99.90;;;;;;5040816;28;20025;-71
2022/12/04 11:23:17;;;;;;;75.10;30.08;;;3.50;99.90;;;;;;5040112;28;20025;-71
2022/12/04 11:25:55;;;;;;;76.85;32.63;;;3.40;99.90;;;;;;5022838;28;20028;-71
2022/12/04 11:28:25;;;;;;;77.18;30.15;;;3.50;99.90;;;;;;5058078;28;20047;-71
2022/12/04 11:30:54;;;;;;;75.65;30.63;;;3.50;99.90;;;;;;5056115;28;20029;-72
2022/12/04 11:33:39;;;;;;;73.82;30.13;;;3.50;99.90;;;;;;5037951;28;20058;-71
2022/12/04 11:36:28;;;;;;;68.70;28.55;;;3.50;99.90;;;;;;5038135;28;20033;-71
2022/12/04 11:39:06;;;;;;;65.13;27.58;;;3.50;99.90;;;;;;5039215;28;20029;-71
2022/12/04 11:41:32;;;;;;;70.57;28.38;;;3.50;99.90;;;;;;5039314;28;20465;-72
2022/12/04 11:43:58;;;;;;;71.72;30.30;;;3.50;99.90;;;;;;5057107;28;20040;-72
2022/12/04 11:46:29;;;;;;;62.95;28.52;;;3.60;99.90;;;;;;5038841;28;20029;-72
2022/12/04 11:48:55;;;;;;;63.95;28.75;;;3.60;99.90;;;;;;5056908;28;20028;-71
2022/12/04 11:51:32;;;;;;;63.30;29.13;;;3.60;99.90;;;;;;5055884;28;20071;-72
2022/12/04 11:54:28;;;;;;;67.57;29.70;;;3.60;99.90;;;;;;5038448;28;20036;-71
2022/12/04 11:57:18;;;;;;;60.13;28.77;;;3.60;99.90;;;;;;5056186;28;20021;-71
2022/12/04 11:59:59;;;;;;;61.67;28.80;;;3.60;99.90;;;;;;5038237;28;20029;-72
2022/12/04 12:02:40;;;;;;;63.40;28.45;;;3.60;99.90;;;;;;5056361;28;20033;-72
2022/12/04 12:05:23;;;;;;;69.38;31.02;;;3.50;99.90;;;;;;5056859;28;20048;-72
2022/12/04 12:08:06;;;;;;;61.40;28.67;;;3.60;99.90;;;;;;5056278;28;20542;-72
2022/12/04 12:11:04;;;;;;;66.22;29.42;;;3.60;99.90;;;;;;5038708;28;20055;-72
2022/12/04 12:14:07;;;;;;;63.10;28.00;;;3.60;99.90;;;;;;5053113;28;20045;-71
2022/12/04 12:16:54;;;;;;;62.92;28.13;;;3.50;99.90;;;;;;5039556;28;20087;-72
2022/12/04 12:19:20;;;;;;;64.18;29.50;;;3.50;99.90;;;;;;5038223;28;20112;-72
2022/12/04 12:22:20;;;;;;;62.88;27.75;;;3.50;99.90;;;;;;5056482;28;20542;-72
2022/12/04 12:25:15;;;;;;;52.47;27.23;;;3.60;99.90;;;;;;5039597;28;20029;-72
2022/12/04 12:28:05;;;;;;;58.00;26.23;;;3.60;99.90;;;;;;5039811;28;20027;-72
2022/12/04 12:31:00;;;;;;;59.72;28.15;;;3.60;99.90;;;;;;5057069;28;20435;-72
2022/12/04 12:33:34;;;;;;;61.53;28.35;;;3.60;99.90;;;;;;5013995;28;20041;-71
2022/12/04 12:36:11;;;;;;;65.65;28.65;;;3.60;99.90;;;;;;5056987;28;20045;-72
2022/12/04 12:39:10;;;;;;;88.00;40.28;;;3.60;99.90;;;;;;5055917;28;20025;-72
2022/12/04 12:41:38;;;;;;;;;;;3.60;99.90;;;;;;5054563;28;20036;-72
2022/12/04 12:44:19;;;;;;;58.73;26.53;;;3.60;99.90;;;;;;5056575;28;19950;-72
2022/12/04 12:46:48;;;;;;;63.97;28.33;;;3.60;99.90;;;;;;5056660;28;20518;-72
2022/12/04 12:49:23;;;;;;;62.28;26.65;;;3.60;99.90;;;;;;5056814;28;20464;-72
2022/12/04 12:51:53;;;;;;;57.75;26.92;;;3.60;99.90;;;;;;5038695;28;20036;-72
2022/12/04 12:54:39;;;;;;;63.03;29.05;;;3.60;99.90;;;;;;5038830;28;20055;-71
2022/12/04 12:57:15;;;;;;;64.15;28.73;;;3.60;99.90;;;;;;5055983;28;20052;-72
2022/12/04 12:59:47;;;;;;;61.10;30.10;;;3.70;99.90;;;;;;5056373;28;20515;-72
2022/12/04 13:02:29;;;;;;;55.88;26.70;;;3.60;99.90;;;;;;5057989;28;20481;-75
2022/12/04 13:05:03;;;;;;;52.70;26.45;;;3.70;99.90;;;;;;5046151;28;20021;-80
2022/12/04 13:08:07;;;;;;;49.30;25.45;;;3.70;99.90;;;;;;5064736;28;20025;-73
2022/12/04 13:10:46;;;;;;;54.05;23.92;;;3.70;99.90;;;;;;5041821;28;20060;-72
2022/12/04 13:13:27;;;;;;;57.10;25.55;;;3.70;99.90;;;;;;5042112;28;20096;-72
2022/12/04 13:16:00;;;;;;;57.15;26.15;;;3.70;99.90;;;;;;5042444;28;20524;-72